Monday, July 23, 2018, 3:09 PM GMT
Back to Local

CWIT, Saint Clothilde Automated Reporting Station

Location: , , Canada Lat: 45.167
Local Time: 3:09 PM GMT (15:09 GMT) Lon: -73.683
Time Zone: GMT Elev: 170 ft

Show me the last for .
Show Coded

Time T Td Feel RH Dir Speed Gust Alt SLP Vis Weather Sky Remarks
2018-07-23 14:00 79 71 83 74 140° 9 - - 30.10 0 None
2018-07-23 13:00 77 71 81 80 140° 6 - - 30.10 0 None
2018-07-23 12:00 75 70 78 84 140° 6 - - 30.09 0 None
2018-07-23 11:00 73 69 77 87 130° 6 - - 30.08 0 None
2018-07-23 10:00 72 68 76 89 110° 5 - - 30.06 0 None
2018-07-23 09:00 72 68 76 87 80° 3 - - 30.06 0 None
2018-07-23 08:00 73 67 77 81 140° 6 - - 30.05 0 None
2018-07-23 07:00 73 67 77 81 110° 3 - - 30.05 0 None
2018-07-23 06:00 72 66 76 82 100° 3 - - 30.05 0 None
2018-07-23 05:00 73 66 77 79 140° 8 - - 30.05 0 None
2018-07-23 04:00 74 66 77 77 140° 7 - - 30.06 0 None
2018-07-23 03:00 74 66 77 77 140° 7 - - 30.05 0 None
2018-07-23 02:00 75 67 79 75 140° 6 - - 30.05 0 None
2018-07-23 01:00 74 66 78 74 110° 3 - - 30.03 0 None
2018-07-23 00:00 78 67 81 68 110° 6 - - 30.01 0 None
2018-07-22 23:00 79 66 81 66 120° 5 - - 30.00 0 None
2018-07-22 22:00 80 66 83 63 130° 8 - - 29.98 0 None
2018-07-22 21:00 78 67 81 68 130° 10 - - 29.98 0 None
2018-07-22 20:00 77 66 80 68 140° 9 - - 30.00 0 None
2018-07-22 19:00 75 65 78 72 120° 10 18 - 30.00 0 None
2018-07-22 18:00 67 63 - 85 80° 8 - - 30.01 0 None
2018-07-22 17:00 63 60 - 88 80° 6 - - 30.03 0 1-hr Precip Total: 0.02"
2018-07-22 16:00 64 59 - 84 70° 8 - - 30.03 0 1-hr Precip Total: 0.02"

Support USWX by starting your Amazon purchase here.